createdAt,value
2023-05-23T00:00:15.713Z,16.50
2023-05-23T00:02:48.758Z,16.30
2023-05-23T00:05:19.278Z,16.30
2023-05-23T00:07:49.641Z,17.00
2023-05-23T00:10:20.013Z,16.40
2023-05-23T00:12:50.194Z,16.10
2023-05-23T00:15:20.391Z,16.30
2023-05-23T00:17:53.565Z,14.30
2023-05-23T00:20:23.945Z,16.40
2023-05-23T00:22:54.798Z,16.40
2023-05-23T00:25:24.844Z,16.40
2023-05-23T00:27:55.002Z,16.50
2023-05-23T00:30:25.126Z,16.40
2023-05-23T00:32:59.267Z,16.40
2023-05-23T00:35:30.002Z,16.50
2023-05-23T00:38:00.232Z,16.40
2023-05-23T00:40:30.362Z,16.50
2023-05-23T00:45:31.187Z,17.90
2023-05-23T00:48:04.518Z,16.80
2023-05-23T00:50:34.742Z,16.30
2023-05-23T00:53:05.076Z,15.10
2023-05-23T00:55:36.017Z,16.20
2023-05-23T00:58:06.040Z,16.20
2023-05-23T01:00:38.788Z,16.20
2023-05-23T01:03:17.163Z,16.30
2023-05-23T01:08:18.484Z,16.30
2023-05-23T01:10:48.622Z,16.20
2023-05-23T01:13:25.229Z,16.20
2023-05-23T01:16:03.158Z,16.40
2023-05-23T01:18:41.654Z,16.20
2023-05-23T01:21:18.854Z,16.30
2023-05-23T01:24:29.362Z,15.00
2023-05-23T01:27:12.009Z,16.20
2023-05-23T01:29:48.420Z,17.40
2023-05-23T01:32:23.141Z,16.20
2023-05-23T01:34:56.686Z,16.20
2023-05-23T01:37:26.836Z,16.20
2023-05-23T01:39:57.023Z,16.20
2023-05-23T01:42:28.298Z,16.20
2023-05-23T01:45:03.622Z,17.80
2023-05-23T01:47:33.836Z,16.20
2023-05-23T01:50:05.475Z,16.20
2023-05-23T01:52:36.211Z,16.20
2023-05-23T01:55:12.321Z,15.90
2023-05-23T01:57:43.002Z,16.20
2023-05-23T02:00:16.930Z,16.10
2023-05-23T02:02:47.272Z,16.10
2023-05-23T02:10:18.531Z,16.10
2023-05-23T02:12:48.964Z,16.20
2023-05-23T02:15:21.872Z,16.10
2023-05-23T02:17:52.076Z,16.00
2023-05-23T02:20:22.685Z,16.00
2023-05-23T02:22:52.822Z,16.10
2023-05-23T02:27:53.546Z,16.00
2023-05-23T02:30:26.309Z,16.00
2023-05-23T02:32:57.883Z,16.10
2023-05-23T02:37:58.481Z,15.90
2023-05-23T02:40:28.710Z,14.90
2023-05-23T02:42:59.543Z,15.90
2023-05-23T02:45:32.383Z,14.50
2023-05-23T02:48:02.557Z,16.00
2023-05-23T02:53:03.173Z,14.80
2023-05-23T02:58:06.167Z,15.90
2023-05-23T03:00:40.067Z,16.00
2023-05-23T03:03:10.398Z,16.00
2023-05-23T03:05:40.892Z,16.00
2023-05-23T03:08:11.171Z,16.00
2023-05-23T03:10:41.316Z,16.20
2023-05-23T03:13:11.467Z,16.00
2023-05-23T03:15:44.310Z,17.50
2023-05-23T03:18:14.477Z,16.10
2023-05-23T03:20:45.670Z,16.10
2023-05-23T03:23:15.784Z,16.10
2023-05-23T03:25:46.770Z,16.10
2023-05-23T03:28:16.666Z,16.00
2023-05-23T03:30:49.506Z,16.10
2023-05-23T03:35:50.325Z,16.20
2023-05-23T03:38:20.570Z,16.20
2023-05-23T03:40:50.824Z,16.30
2023-05-23T03:43:20.955Z,16.20
2023-05-23T03:45:53.868Z,16.30
2023-05-23T03:48:24.013Z,16.30
2023-05-23T03:50:54.419Z,16.20
2023-05-23T03:53:24.552Z,16.30
2023-05-23T03:55:54.694Z,16.20
2023-05-23T03:58:24.828Z,16.20
2023-05-23T04:00:59.102Z,16.30
2023-05-23T04:03:33.015Z,16.30
2023-05-23T04:06:03.809Z,16.30
2023-05-23T04:08:34.182Z,16.30
2023-05-23T04:11:04.360Z,16.70
2023-05-23T04:13:34.472Z,16.30
2023-05-23T04:16:07.862Z,16.20
2023-05-23T04:18:39.449Z,16.20
2023-05-23T04:21:10.134Z,16.10
2023-05-23T04:23:40.261Z,14.90
2023-05-23T04:26:10.478Z,17.30
2023-05-23T04:28:40.632Z,16.00
2023-05-23T04:31:14.083Z,15.90
2023-05-23T04:33:44.404Z,16.00
2023-05-23T04:36:14.547Z,15.90
2023-05-23T04:38:44.761Z,16.00
2023-05-23T04:41:16.645Z,15.90
2023-05-23T04:43:46.844Z,16.00
2023-05-23T04:46:19.631Z,17.20
2023-05-23T04:48:50.848Z,16.00
2023-05-23T04:51:21.939Z,16.00
2023-05-23T04:53:53.447Z,15.00
2023-05-23T04:56:28.512Z,16.10
2023-05-23T05:01:33.056Z,16.00
2023-05-23T05:04:05.618Z,16.20
2023-05-23T05:06:36.180Z,16.20
2023-05-23T05:09:06.313Z,16.20
2023-05-23T05:11:36.497Z,16.20
2023-05-23T05:19:10.204Z,16.20
2023-05-23T05:21:40.449Z,16.50
2023-05-23T05:24:11.355Z,16.10
2023-05-23T05:26:41.439Z,16.10
2023-05-23T05:29:11.595Z,16.10
2023-05-23T05:31:45.506Z,16.20
2023-05-23T05:34:16.135Z,16.20
2023-05-23T05:36:48.395Z,16.00
2023-05-23T05:39:18.665Z,16.00
2023-05-23T05:41:48.839Z,16.00
2023-05-23T05:44:19.025Z,14.10
2023-05-23T05:46:52.014Z,17.10
2023-05-23T05:49:22.549Z,16.00
2023-05-23T05:51:52.925Z,16.10
2023-05-23T05:54:23.143Z,16.30
2023-05-23T05:56:53.334Z,16.30
2023-05-23T05:59:23.474Z,17.60
2023-05-23T06:01:56.736Z,16.50
2023-05-23T06:04:26.899Z,16.40
2023-05-23T06:11:57.826Z,18.90
2023-05-23T06:14:28.027Z,18.20
2023-05-23T06:17:01.080Z,18.40
2023-05-23T06:19:31.252Z,18.70
2023-05-23T06:22:01.412Z,18.90
2023-05-23T06:27:02.976Z,19.00
2023-05-23T06:29:33.634Z,19.00
2023-05-23T06:32:06.316Z,19.00
2023-05-23T06:37:06.979Z,19.00
2023-05-23T06:39:37.147Z,18.90
2023-05-23T06:44:37.976Z,18.90
2023-05-23T06:47:10.988Z,18.80
2023-05-23T06:49:41.128Z,19.00
2023-05-23T06:52:11.371Z,19.10
2023-05-23T06:54:41.639Z,18.90
2023-05-23T06:57:11.883Z,18.70
2023-05-23T06:59:42.034Z,19.40
2023-05-23T07:02:14.852Z,18.20
2023-05-23T07:07:15.398Z,17.80
2023-05-23T07:09:45.632Z,17.90
2023-05-23T07:12:16.298Z,17.90
2023-05-23T07:17:19.568Z,18.10
2023-05-23T07:19:49.754Z,18.10
2023-05-23T07:22:19.972Z,18.00
2023-05-23T07:24:50.100Z,18.40
2023-05-23T07:29:51.093Z,18.40
2023-05-23T07:32:23.938Z,18.50
2023-05-23T07:34:54.085Z,18.40
2023-05-23T07:37:24.348Z,18.30
2023-05-23T07:44:55.318Z,18.00
2023-05-23T07:47:28.477Z,17.80
2023-05-23T07:52:29.242Z,17.40
2023-05-23T07:54:59.460Z,17.30
2023-05-23T07:57:29.818Z,17.20
2023-05-23T08:00:00.023Z,17.20
2023-05-23T08:02:32.957Z,17.30
2023-05-23T08:07:33.772Z,16.60
2023-05-23T08:10:03.926Z,16.90
2023-05-23T08:15:04.623Z,18.10
2023-05-23T08:17:37.667Z,16.00
2023-05-23T08:20:10.400Z,16.90
2023-05-23T08:22:40.617Z,17.20
2023-05-23T08:25:11.510Z,19.50
2023-05-23T08:27:41.705Z,17.70
2023-05-23T08:30:13.854Z,17.60
2023-05-23T08:35:17.136Z,17.80
2023-05-23T08:37:48.364Z,17.80
2023-05-23T08:40:22.899Z,17.90
2023-05-23T08:42:53.852Z,18.10
2023-05-23T08:45:23.944Z,18.60
2023-05-23T08:47:58.633Z,18.90
2023-05-23T08:50:31.275Z,18.90
2023-05-23T08:53:02.564Z,18.90
2023-05-23T08:58:03.914Z,20.20
2023-05-23T09:00:35.227Z,18.50
2023-05-23T09:03:08.329Z,20.80
2023-05-23T09:05:38.682Z,20.80
2023-05-23T09:08:09.621Z,20.80
2023-05-23T09:10:40.618Z,21.70
2023-05-23T09:13:11.068Z,21.70
2023-05-23T09:15:41.231Z,21.60
2023-05-23T09:18:14.741Z,21.30
2023-05-23T09:20:47.023Z,21.70
2023-05-23T09:23:17.230Z,22.90
2023-05-23T09:25:50.485Z,24.50
2023-05-23T09:28:21.056Z,25.00
2023-05-23T09:30:51.193Z,26.00
2023-05-23T09:33:24.024Z,25.90
2023-05-23T09:35:54.123Z,24.80
2023-05-23T09:38:24.346Z,24.40
2023-05-23T09:40:59.092Z,24.20
2023-05-23T09:43:29.308Z,24.50
2023-05-23T09:46:03.631Z,25.40
2023-05-23T09:48:36.521Z,25.30
2023-05-23T09:51:12.662Z,25.10
2023-05-23T09:53:42.979Z,25.10
2023-05-23T09:56:15.734Z,24.40
2023-05-23T09:58:49.847Z,24.50
2023-05-23T10:01:20.632Z,25.90
2023-05-23T10:04:00.044Z,27.40
2023-05-23T10:06:34.990Z,25.20
2023-05-23T10:09:08.439Z,24.00
2023-05-23T10:12:19.058Z,24.20
2023-05-23T10:14:55.195Z,25.10
2023-05-23T10:17:29.922Z,23.00
2023-05-23T10:20:08.721Z,24.40
2023-05-23T10:22:39.950Z,24.10
2023-05-23T10:25:11.369Z,24.30
2023-05-23T10:30:13.808Z,24.80
2023-05-23T10:32:45.295Z,24.10
2023-05-23T10:35:26.171Z,24.20
2023-05-23T10:38:02.900Z,25.10
2023-05-23T10:40:37.580Z,26.40
2023-05-23T10:43:15.421Z,26.70
2023-05-23T10:45:50.005Z,26.70
2023-05-23T10:51:09.472Z,25.40
2023-05-23T10:53:40.494Z,24.50
2023-05-23T10:56:11.460Z,24.30
2023-05-23T10:58:42.799Z,24.40
2023-05-23T11:01:17.073Z,26.80
2023-05-23T11:03:55.689Z,26.90
2023-05-23T11:06:41.817Z,25.90
2023-05-23T11:09:18.947Z,25.90
2023-05-23T11:11:58.280Z,25.10
2023-05-23T11:14:38.278Z,25.30
2023-05-23T11:17:20.301Z,26.00
2023-05-23T11:20:01.658Z,26.10
2023-05-23T11:22:34.763Z,26.30
2023-05-23T11:25:09.461Z,25.60
2023-05-23T11:27:41.661Z,25.40
2023-05-23T11:30:14.410Z,25.40
2023-05-23T11:32:46.023Z,24.60
2023-05-23T11:35:16.234Z,23.20
2023-05-23T11:43:00.462Z,23.60
2023-05-23T11:45:32.343Z,23.50
2023-05-23T11:48:07.542Z,23.40
2023-05-23T11:50:45.268Z,23.60
2023-05-23T11:53:21.144Z,23.60
2023-05-23T11:55:56.309Z,23.70
2023-05-23T11:58:30.564Z,23.80
2023-05-23T12:03:35.406Z,23.40
2023-05-23T12:06:05.906Z,23.60
2023-05-23T12:08:38.742Z,23.70
2023-05-23T12:11:12.128Z,23.90
2023-05-23T12:13:45.174Z,23.30
2023-05-23T12:16:17.626Z,23.40
2023-05-23T12:18:47.901Z,23.50
2023-05-23T12:21:18.205Z,23.30
2023-05-23T12:23:50.929Z,23.60
2023-05-23T12:26:22.409Z,23.50
2023-05-23T12:31:24.660Z,23.70
2023-05-23T12:33:58.728Z,23.10
2023-05-23T12:36:32.536Z,22.70
2023-05-23T12:39:09.399Z,22.50
2023-05-23T12:41:39.545Z,22.40
2023-05-23T12:44:09.768Z,22.60
2023-05-23T12:49:10.984Z,22.40
2023-05-23T12:51:41.165Z,22.50
2023-05-23T12:54:14.673Z,22.40
2023-05-23T12:56:44.970Z,22.80
2023-05-23T12:59:15.357Z,22.90
2023-05-23T13:01:45.810Z,23.20
2023-05-23T13:04:15.820Z,23.10
2023-05-23T13:06:45.831Z,23.00
2023-05-23T13:09:18.638Z,23.00
2023-05-23T13:11:48.903Z,23.10
2023-05-23T13:16:49.285Z,22.90
2023-05-23T13:19:19.681Z,22.80
2023-05-23T13:21:50.196Z,22.50
2023-05-23T13:24:22.779Z,22.60
2023-05-23T13:26:53.042Z,22.70
2023-05-23T13:29:23.305Z,22.90
2023-05-23T13:31:54.047Z,23.00
2023-05-23T13:34:24.425Z,22.90
2023-05-23T13:36:54.573Z,22.30
2023-05-23T13:41:57.866Z,22.00
2023-05-23T13:44:28.105Z,22.10
2023-05-23T13:46:58.381Z,21.70
2023-05-23T13:49:28.640Z,22.20
2023-05-23T13:51:58.829Z,22.40
2023-05-23T13:54:31.916Z,22.40
2023-05-23T13:57:03.036Z,22.40
2023-05-23T13:59:33.301Z,22.30
2023-05-23T14:02:03.565Z,22.20
2023-05-23T14:04:33.764Z,22.10
2023-05-23T14:07:04.229Z,22.20
2023-05-23T14:09:37.078Z,22.20
2023-05-23T14:12:08.323Z,21.30
2023-05-23T14:14:38.505Z,24.10
2023-05-23T14:17:09.109Z,21.20
2023-05-23T14:19:39.314Z,21.30
2023-05-23T14:24:42.785Z,22.10
2023-05-23T14:27:12.991Z,22.00
2023-05-23T14:29:46.572Z,21.90
2023-05-23T14:32:16.929Z,22.00
2023-05-23T14:34:47.216Z,19.90
2023-05-23T14:37:17.340Z,21.90
2023-05-23T14:39:50.138Z,21.80
2023-05-23T14:42:20.291Z,21.90
2023-05-23T14:44:50.520Z,21.80
2023-05-23T14:47:20.709Z,21.70
2023-05-23T14:49:50.929Z,21.70
2023-05-23T14:54:54.039Z,21.60
2023-05-23T15:02:24.988Z,21.60
2023-05-23T15:04:55.394Z,21.60
2023-05-23T15:07:25.642Z,21.40
2023-05-23T15:09:58.509Z,21.50
2023-05-23T15:12:28.875Z,21.50
2023-05-23T15:15:04.156Z,21.60
2023-05-23T15:17:35.388Z,23.30
2023-05-23T15:20:07.276Z,21.20
2023-05-23T15:22:39.894Z,21.20
2023-05-23T15:25:13.935Z,21.00
2023-05-23T15:30:15.996Z,23.60
2023-05-23T15:35:19.523Z,21.00
2023-05-23T15:37:49.931Z,21.00
2023-05-23T15:40:23.454Z,21.10
2023-05-23T15:47:54.573Z,23.60
2023-05-23T15:50:24.868Z,21.40
2023-05-23T15:55:28.118Z,21.20
2023-05-23T15:57:58.281Z,19.40
2023-05-23T16:02:58.910Z,21.10
2023-05-23T16:05:29.106Z,21.10
2023-05-23T16:07:59.353Z,20.50
2023-05-23T16:10:32.104Z,18.90
2023-05-23T16:13:02.510Z,23.00
2023-05-23T16:15:32.713Z,20.60
2023-05-23T16:18:02.904Z,20.40
2023-05-23T16:20:35.134Z,20.60
2023-05-23T16:28:08.944Z,20.70
2023-05-23T16:30:39.277Z,20.70
2023-05-23T16:33:09.481Z,20.70
2023-05-23T16:35:39.899Z,20.50
2023-05-23T16:38:10.723Z,20.50
2023-05-23T16:40:43.385Z,20.60
2023-05-23T16:43:13.770Z,20.60
2023-05-23T16:45:44.532Z,20.60
2023-05-23T16:48:14.811Z,20.50
2023-05-23T16:55:48.873Z,20.40
2023-05-23T16:58:21.310Z,20.40
2023-05-23T17:00:52.001Z,20.40
2023-05-23T17:03:23.404Z,20.10
2023-05-23T17:08:25.464Z,19.60
2023-05-23T17:10:58.281Z,19.60
2023-05-23T17:13:28.453Z,19.40
2023-05-23T17:15:58.685Z,19.30
2023-05-23T17:20:59.970Z,19.20
2023-05-23T17:33:34.565Z,18.90
2023-05-23T17:36:04.795Z,18.80
2023-05-23T17:38:36.097Z,18.80
2023-05-23T17:41:09.080Z,18.50
2023-05-23T17:43:39.242Z,18.60
2023-05-23T17:46:09.463Z,18.60
2023-05-23T17:51:17.006Z,18.70
2023-05-23T17:53:47.242Z,18.60
2023-05-23T17:56:20.189Z,17.50
2023-05-23T17:58:50.352Z,18.40
2023-05-23T18:01:20.621Z,18.30
2023-05-23T18:03:50.930Z,18.20
2023-05-23T18:06:21.280Z,17.90
2023-05-23T18:08:51.540Z,17.80
2023-05-23T18:13:54.817Z,17.90
2023-05-23T18:16:25.236Z,17.90
2023-05-23T18:18:55.408Z,17.80
2023-05-23T18:23:56.920Z,17.80
2023-05-23T18:26:30.297Z,17.70
2023-05-23T18:34:02.959Z,17.60
2023-05-23T18:36:33.293Z,17.40
2023-05-23T18:39:04.768Z,17.50
2023-05-23T18:41:37.677Z,17.50
2023-05-23T18:44:08.003Z,17.40
2023-05-23T18:46:38.305Z,17.40
2023-05-23T18:49:08.726Z,17.30
2023-05-23T18:51:39.156Z,17.30
2023-05-23T18:54:09.498Z,17.10
2023-05-23T22:40:57.265Z,12.80
2023-05-23T22:43:30.222Z,13.80
2023-05-23T22:48:34.187Z,12.70
2023-05-23T22:51:09.923Z,12.60
2023-05-23T22:56:11.552Z,12.60
2023-05-23T23:41:29.049Z,12.00
2023-05-23T23:44:02.219Z,12.10
2023-05-23T23:46:32.836Z,12.10
2023-05-23T23:49:03.150Z,12.80
2023-05-23T23:51:33.322Z,12.90
2023-05-23T23:56:33.822Z,12.40
2023-05-23T23:59:06.927Z,10.70
